sensor_id;sensor_type;location;lat;lon;timestamp;pressure;altitude;pressure_sealevel;temperature;humidity
21863;BME280;11096;51.338;12.524;2023-05-20T00:00:02;100910.22;;;12.17;87.87
21863;BME280;11096;51.338;12.524;2023-05-20T00:02:28;100904.06;;;12.18;87.64
21863;BME280;11096;51.338;12.524;2023-05-20T00:04:53;100910.84;;;12.20;87.60
21863;BME280;11096;51.338;12.524;2023-05-20T00:07:18;100895.31;;;12.19;87.83
21863;BME280;11096;51.338;12.524;2023-05-20T00:09:44;100904.16;;;12.16;88.06
21863;BME280;11096;51.338;12.524;2023-05-20T00:12:09;100899.88;;;12.15;87.93
21863;BME280;11096;51.338;12.524;2023-05-20T00:14:34;100897.38;;;12.14;88.14
21863;BME280;11096;51.338;12.524;2023-05-20T00:17:00;100899.13;;;12.13;88.40
21863;BME280;11096;51.338;12.524;2023-05-20T00:19:25;100894.88;;;12.12;88.74
21863;BME280;11096;51.338;12.524;2023-05-20T00:21:51;100897.31;;;12.01;89.83
21863;BME280;11096;51.338;12.524;2023-05-20T00:24:16;100895.56;;;12.01;90.24
21863;BME280;11096;51.338;12.524;2023-05-20T00:26:41;100885.41;;;11.97;90.33
21863;BME280;11096;51.338;12.524;2023-05-20T00:29:07;100890.97;;;12.05;90.69
21863;BME280;11096;51.338;12.524;2023-05-20T00:31:32;100886.59;;;12.06;90.63
21863;BME280;11096;51.338;12.524;2023-05-20T00:33:58;100883.69;;;12.10;90.87
21863;BME280;11096;51.338;12.524;2023-05-20T00:36:23;100883.13;;;12.19;90.27
21863;BME280;11096;51.338;12.524;2023-05-20T00:38:48;100877.47;;;12.13;90.54
21863;BME280;11096;51.338;12.524;2023-05-20T00:41:14;100884.06;;;12.18;90.41
21863;BME280;11096;51.338;12.524;2023-05-20T00:43:39;100880.53;;;12.19;90.51
21863;BME280;11096;51.338;12.524;2023-05-20T00:46:05;100883.03;;;12.21;90.41
21863;BME280;11096;51.338;12.524;2023-05-20T00:48:39;100875.22;;;12.21;90.61
21863;BME280;11096;51.338;12.524;2023-05-20T00:51:05;100874.47;;;12.19;90.88
21863;BME280;11096;51.338;12.524;2023-05-20T00:53:33;100885.19;;;12.14;91.38
21863;BME280;11096;51.338;12.524;2023-05-20T00:55:59;100895.63;;;12.14;91.57
21863;BME280;11096;51.338;12.524;2023-05-20T00:58:24;100895.44;;;12.03;92.36
21863;BME280;11096;51.338;12.524;2023-05-20T01:00:50;100893.50;;;12.07;93.03
21863;BME280;11096;51.338;12.524;2023-05-20T01:03:16;100895.81;;;12.11;93.05
21863;BME280;11096;51.338;12.524;2023-05-20T01:05:41;100903.63;;;12.11;93.20
21863;BME280;11096;51.338;12.524;2023-05-20T01:08:07;100891.63;;;12.09;93.58
21863;BME280;11096;51.338;12.524;2023-05-20T01:10:34;100891.63;;;12.09;93.82
21863;BME280;11096;51.338;12.524;2023-05-20T01:13:04;100894.31;;;12.07;94.13
21863;BME280;11096;51.338;12.524;2023-05-20T01:15:33;100880.56;;;12.05;94.96
21863;BME280;11096;51.338;12.524;2023-05-20T01:18:04;100894.25;;;12.09;95.18
21863;BME280;11096;51.338;12.524;2023-05-20T01:20:33;100893.22;;;12.11;95.02
21863;BME280;11096;51.338;12.524;2023-05-20T01:23:00;100897.13;;;12.04;95.39
21863;BME280;11096;51.338;12.524;2023-05-20T01:25:25;100890.88;;;12.07;95.64
21863;BME280;11096;51.338;12.524;2023-05-20T01:27:51;100883.50;;;12.13;95.72
21863;BME280;11096;51.338;12.524;2023-05-20T01:30:19;100885.56;;;12.08;96.16
21863;BME280;11096;51.338;12.524;2023-05-20T01:32:54;100874.72;;;12.01;96.32
21863;BME280;11096;51.338;12.524;2023-05-20T01:35:22;100877.50;;;11.98;96.61
21863;BME280;11096;51.338;12.524;2023-05-20T01:37:49;100874.88;;;11.98;96.84
21863;BME280;11096;51.338;12.524;2023-05-20T01:40:16;100869.59;;;12.00;96.84
21863;BME280;11096;51.338;12.524;2023-05-20T01:42:43;100871.38;;;11.99;97.41
21863;BME280;11096;51.338;12.524;2023-05-20T01:45:10;100877.22;;;11.89;98.18
21863;BME280;11096;51.338;12.524;2023-05-20T01:47:35;100875.91;;;11.96;98.42
21863;BME280;11096;51.338;12.524;2023-05-20T01:50:01;100873.81;;;11.88;98.71
21863;BME280;11096;51.338;12.524;2023-05-20T01:52:26;100868.97;;;11.96;98.61
21863;BME280;11096;51.338;12.524;2023-05-20T01:54:52;100876.56;;;11.99;98.30
21863;BME280;11096;51.338;12.524;2023-05-20T01:57:18;100872.69;;;11.92;98.06
21863;BME280;11096;51.338;12.524;2023-05-20T01:59:44;100877.69;;;11.95;98.52
21863;BME280;11096;51.338;12.524;2023-05-20T02:02:09;100884.88;;;11.92;98.93
21863;BME280;11096;51.338;12.524;2023-05-20T02:04:34;100877.16;;;11.90;98.70
21863;BME280;11096;51.338;12.524;2023-05-20T02:07:00;100889.53;;;11.87;99.39
21863;BME280;11096;51.338;12.524;2023-05-20T02:09:25;100883.94;;;11.93;99.26
21863;BME280;11096;51.338;12.524;2023-05-20T02:11:51;100877.81;;;11.94;99.14
21863;BME280;11096;51.338;12.524;2023-05-20T02:14:16;100877.34;;;11.87;99.51
21863;BME280;11096;51.338;12.524;2023-05-20T02:16:42;100878.72;;;11.93;99.80
21863;BME280;11096;51.338;12.524;2023-05-20T02:19:07;100876.41;;;11.88;99.80
21863;BME280;11096;51.338;12.524;2023-05-20T02:21:38;100876.31;;;11.90;100.00
21863;BME280;11096;51.338;12.524;2023-05-20T02:24:04;100876.53;;;11.87;99.95
21863;BME280;11096;51.338;12.524;2023-05-20T02:26:29;100867.75;;;11.88;99.85
21863;BME280;11096;51.338;12.524;2023-05-20T02:28:55;100867.66;;;11.75;100.00
21863;BME280;11096;51.338;12.524;2023-05-20T02:31:20;100863.84;;;11.80;100.00
21863;BME280;11096;51.338;12.524;2023-05-20T02:33:46;100872.47;;;11.81;100.00
21863;BME280;11096;51.338;12.524;2023-05-20T02:36:12;100873.63;;;11.91;100.00
21863;BME280;11096;51.338;12.524;2023-05-20T02:38:37;100875.56;;;11.88;100.00
21863;BME280;11096;51.338;12.524;2023-05-20T02:41:02;100877.41;;;11.86;100.00
21863;BME280;11096;51.338;12.524;2023-05-20T02:43:29;100875.56;;;11.73;100.00
21863;BME280;11096;51.338;12.524;2023-05-20T02:45:55;100883.75;;;11.81;100.00
21863;BME280;11096;51.338;12.524;2023-05-20T02:48:21;100871.84;;;11.77;100.00
21863;BME280;11096;51.338;12.524;2023-05-20T02:50:46;100870.34;;;11.73;100.00
21863;BME280;11096;51.338;12.524;2023-05-20T02:53:12;100862.75;;;11.70;100.00
21863;BME280;11096;51.338;12.524;2023-05-20T02:55:39;100852.88;;;11.61;100.00
21863;BME280;11096;51.338;12.524;2023-05-20T02:58:04;100863.69;;;11.55;100.00
21863;BME280;11096;51.338;12.524;2023-05-20T03:00:30;100865.81;;;11.48;100.00
21863;BME280;11096;51.338;12.524;2023-05-20T03:02:56;100867.59;;;11.48;100.00
21863;BME280;11096;51.338;12.524;2023-05-20T03:05:23;100872.25;;;11.43;100.00
21863;BME280;11096;51.338;12.524;2023-05-20T03:07:48;100870.94;;;11.35;100.00
21863;BME280;11096;51.338;12.524;2023-05-20T03:10:14;100863.22;;;11.34;100.00
21863;BME280;11096;51.338;12.524;2023-05-20T03:12:40;100872.50;;;11.24;100.00
21863;BME280;11096;51.338;12.524;2023-05-20T03:15:06;100870.94;;;11.21;100.00
21863;BME280;11096;51.338;12.524;2023-05-20T03:17:31;100865.81;;;11.20;100.00
21863;BME280;11096;51.338;12.524;2023-05-20T03:19:57;100866.84;;;11.17;100.00
21863;BME280;11096;51.338;12.524;2023-05-20T03:22:22;100863.03;;;11.08;100.00
21863;BME280;11096;51.338;12.524;2023-05-20T03:24:48;100860.44;;;11.08;100.00
21863;BME280;11096;51.338;12.524;2023-05-20T03:27:13;100864.88;;;11.06;100.00
21863;BME280;11096;51.338;12.524;2023-05-20T03:29:38;100866.72;;;11.04;100.00
21863;BME280;11096;51.338;12.524;2023-05-20T03:32:04;100864.88;;;11.06;100.00
21863;BME280;11096;51.338;12.524;2023-05-20T03:34:30;100877.13;;;11.04;100.00
21863;BME280;11096;51.338;12.524;2023-05-20T03:36:56;100871.94;;;11.04;100.00
21863;BME280;11096;51.338;12.524;2023-05-20T03:39:21;100866.38;;;11.10;100.00
21863;BME280;11096;51.338;12.524;2023-05-20T03:41:47;100873.63;;;11.05;100.00
21863;BME280;11096;51.338;12.524;2023-05-20T03:44:12;100870.16;;;11.05;100.00
21863;BME280;11096;51.338;12.524;2023-05-20T03:46:38;100866.66;;;11.06;100.00
21863;BME280;11096;51.338;12.524;2023-05-20T03:49:03;100872.75;;;11.05;100.00
21863;BME280;11096;51.338;12.524;2023-05-20T03:51:30;100860.50;;;11.07;100.00
21863;BME280;11096;51.338;12.524;2023-05-20T03:53:55;100868.13;;;11.10;100.00
21863;BME280;11096;51.338;12.524;2023-05-20T03:56:21;100869.56;;;11.15;100.00
21863;BME280;11096;51.338;12.524;2023-05-20T03:58:46;100867.41;;;11.22;100.00
21863;BME280;11096;51.338;12.524;2023-05-20T04:01:12;100872.06;;;11.31;100.00
21863;BME280;11096;51.338;12.524;2023-05-20T04:03:38;100865.63;;;11.37;100.00
21863;BME280;11096;51.338;12.524;2023-05-20T04:06:06;100871.59;;;11.39;100.00
21863;BME280;11096;51.338;12.524;2023-05-20T04:08:31;100859.88;;;11.46;100.00
21863;BME280;11096;51.338;12.524;2023-05-20T04:10:57;100877.19;;;11.47;100.00
21863;BME280;11096;51.338;12.524;2023-05-20T04:13:24;100872.88;;;11.46;100.00
21863;BME280;11096;51.338;12.524;2023-05-20T04:15:50;100864.59;;;11.54;100.00
21863;BME280;11096;51.338;12.524;2023-05-20T04:18:16;100871.94;;;11.61;100.00
21863;BME280;11096;51.338;12.524;2023-05-20T04:20:42;100864.03;;;11.63;100.00
21863;BME280;11096;51.338;12.524;2023-05-20T04:23:07;100862.28;;;11.64;100.00
21863;BME280;11096;51.338;12.524;2023-05-20T04:25:33;100867.00;;;12.00;100.00
21863;BME280;11096;51.338;12.524;2023-05-20T04:28:00;100870.34;;;11.73;100.00
21863;BME280;11096;51.338;12.524;2023-05-20T04:30:25;100873.50;;;11.78;100.00
21863;BME280;11096;51.338;12.524;2023-05-20T04:32:51;100868.28;;;11.78;100.00
21863;BME280;11096;51.338;12.524;2023-05-20T04:35:18;100865.13;;;12.02;100.00
21863;BME280;11096;51.338;12.524;2023-05-20T04:37:43;100863.38;;;11.88;100.00
21863;BME280;11096;51.338;12.524;2023-05-20T04:40:12;100868.47;;;12.04;100.00
21863;BME280;11096;51.338;12.524;2023-05-20T04:42:38;100864.94;;;12.05;100.00
21863;BME280;11096;51.338;12.524;2023-05-20T04:45:04;100875.53;;;12.02;100.00
21863;BME280;11096;51.338;12.524;2023-05-20T04:47:33;100877.59;;;11.97;100.00
21863;BME280;11096;51.338;12.524;2023-05-20T04:50:05;100895.56;;;12.01;100.00
21863;BME280;11096;51.338;12.524;2023-05-20T04:52:32;100887.81;;;12.00;100.00
21863;BME280;11096;51.338;12.524;2023-05-20T04:54:58;100888.22;;;11.94;100.00
21863;BME280;11096;51.338;12.524;2023-05-20T04:57:26;100898.66;;;11.94;100.00
21863;BME280;11096;51.338;12.524;2023-05-20T04:59:51;100886.50;;;12.07;100.00
21863;BME280;11096;51.338;12.524;2023-05-20T05:02:17;100886.72;;;12.04;100.00
21863;BME280;11096;51.338;12.524;2023-05-20T05:04:42;100894.28;;;12.21;100.00
21863;BME280;11096;51.338;12.524;2023-05-20T05:07:07;100888.00;;;12.38;100.00
21863;BME280;11096;51.338;12.524;2023-05-20T05:09:33;100882.84;;;12.64;99.19
21863;BME280;11096;51.338;12.524;2023-05-20T05:11:58;100886.78;;;12.57;98.48
21863;BME280;11096;51.338;12.524;2023-05-20T05:14:24;100888.91;;;12.64;97.06
21863;BME280;11096;51.338;12.524;2023-05-20T05:16:49;100890.59;;;12.65;96.95
21863;BME280;11096;51.338;12.524;2023-05-20T05:19:14;100888.53;;;12.96;95.10
21863;BME280;11096;51.338;12.524;2023-05-20T05:21:40;100894.19;;;12.90;93.86
21863;BME280;11096;51.338;12.524;2023-05-20T05:24:05;100891.25;;;12.95;93.39
21863;BME280;11096;51.338;12.524;2023-05-20T05:26:31;100891.47;;;13.04;93.29
21863;BME280;11096;51.338;12.524;2023-05-20T05:28:57;100890.00;;;13.26;92.09
21863;BME280;11096;51.338;12.524;2023-05-20T05:31:22;100886.50;;;13.27;91.24
21863;BME280;11096;51.338;12.524;2023-05-20T05:33:47;100884.16;;;13.22;90.08
21863;BME280;11096;51.338;12.524;2023-05-20T05:36:13;100880.00;;;13.20;90.80
21863;BME280;11096;51.338;12.524;2023-05-20T05:38:38;100870.69;;;13.41;90.31
21863;BME280;11096;51.338;12.524;2023-05-20T05:41:04;100868.38;;;13.24;89.68
21863;BME280;11096;51.338;12.524;2023-05-20T05:43:29;100864.97;;;13.36;89.47
21863;BME280;11096;51.338;12.524;2023-05-20T05:45:54;100855.56;;;13.21;89.56
21863;BME280;11096;51.338;12.524;2023-05-20T05:48:20;100852.22;;;12.93;89.77
21863;BME280;11096;51.338;12.524;2023-05-20T05:50:47;100850.56;;;13.18;90.89
21863;BME280;11096;51.338;12.524;2023-05-20T05:53:12;100842.22;;;13.13;90.58
21863;BME280;11096;51.338;12.524;2023-05-20T05:55:37;100842.09;;;13.01;89.50
21863;BME280;11096;51.338;12.524;2023-05-20T05:58:03;100852.00;;;12.96;90.61
21863;BME280;11096;51.338;12.524;2023-05-20T06:00:28;100849.31;;;13.36;89.64
21863;BME280;11096;51.338;12.524;2023-05-20T06:02:54;100849.72;;;13.04;90.09
21863;BME280;11096;51.338;12.524;2023-05-20T06:05:20;100850.88;;;13.13;90.02
21863;BME280;11096;51.338;12.524;2023-05-20T06:07:45;100853.09;;;13.32;90.40
21863;BME280;11096;51.338;12.524;2023-05-20T06:10:11;100860.56;;;13.11;90.64
21863;BME280;11096;51.338;12.524;2023-05-20T06:12:36;100857.88;;;13.13;91.03
21863;BME280;11096;51.338;12.524;2023-05-20T06:15:01;100853.88;;;12.81;91.62
21863;BME280;11096;51.338;12.524;2023-05-20T06:17:27;100856.53;;;13.07;91.58
21863;BME280;11096;51.338;12.524;2023-05-20T06:19:52;100854.00;;;13.31;90.96
21863;BME280;11096;51.338;12.524;2023-05-20T06:22:18;100854.94;;;13.43;90.00
21863;BME280;11096;51.338;12.524;2023-05-20T06:24:43;100848.66;;;13.45;89.27
21863;BME280;11096;51.338;12.524;2023-05-20T06:27:09;100856.78;;;13.53;88.85
21863;BME280;11096;51.338;12.524;2023-05-20T06:29:34;100860.91;;;13.32;89.16
21863;BME280;11096;51.338;12.524;2023-05-20T06:32:00;100868.28;;;13.25;90.16
21863;BME280;11096;51.338;12.524;2023-05-20T06:34:25;100869.44;;;13.21;90.28
21863;BME280;11096;51.338;12.524;2023-05-20T06:36:51;100865.09;;;13.35;90.26
21863;BME280;11096;51.338;12.524;2023-05-20T06:39:16;100861.09;;;13.29;89.70
21863;BME280;11096;51.338;12.524;2023-05-20T06:41:42;100861.22;;;13.15;90.01
21863;BME280;11096;51.338;12.524;2023-05-20T06:44:08;100864.53;;;13.17;90.57
21863;BME280;11096;51.338;12.524;2023-05-20T06:46:33;100870.84;;;13.27;91.01
21863;BME280;11096;51.338;12.524;2023-05-20T06:48:59;100862.47;;;13.47;90.39
21863;BME280;11096;51.338;12.524;2023-05-20T06:51:26;100857.16;;;13.49;89.44
21863;BME280;11096;51.338;12.524;2023-05-20T06:53:52;100859.34;;;13.29;89.41
21863;BME280;11096;51.338;12.524;2023-05-20T06:56:17;100864.44;;;13.31;90.13
21863;BME280;11096;51.338;12.524;2023-05-20T06:58:42;100869.03;;;13.15;90.64
21863;BME280;11096;51.338;12.524;2023-05-20T07:01:08;100865.19;;;12.95;90.71
21863;BME280;11096;51.338;12.524;2023-05-20T07:03:33;100865.47;;;13.03;91.60
21863;BME280;11096;51.338;12.524;2023-05-20T07:05:59;100864.22;;;13.21;92.22
21863;BME280;11096;51.338;12.524;2023-05-20T07:08:24;100864.22;;;13.60;91.38
21863;BME280;11096;51.338;12.524;2023-05-20T07:10:49;100853.25;;;13.55;89.74
21863;BME280;11096;51.338;12.524;2023-05-20T07:13:16;100860.50;;;13.75;89.93
21863;BME280;11096;51.338;12.524;2023-05-20T07:15:41;100850.50;;;13.69;88.70
21863;BME280;11096;51.338;12.524;2023-05-20T07:18:10;100849.28;;;13.62;87.87
21863;BME280;11096;51.338;12.524;2023-05-20T07:20:35;100845.53;;;13.53;88.58
21863;BME280;11096;51.338;12.524;2023-05-20T07:23:01;100841.00;;;13.68;89.08
21863;BME280;11096;51.338;12.524;2023-05-20T07:25:28;100835.56;;;13.71;87.13
21863;BME280;11096;51.338;12.524;2023-05-20T07:27:53;100826.69;;;13.61;87.72
21863;BME280;11096;51.338;12.524;2023-05-20T07:30:19;100831.78;;;13.75;88.14
21863;BME280;11096;51.338;12.524;2023-05-20T07:32:44;100837.09;;;13.86;87.58
21863;BME280;11096;51.338;12.524;2023-05-20T07:35:10;100827.41;;;14.00;86.54
21863;BME280;11096;51.338;12.524;2023-05-20T07:37:35;100832.47;;;14.14;85.39
21863;BME280;11096;51.338;12.524;2023-05-20T07:40:01;100817.53;;;14.16;85.35
21863;BME280;11096;51.338;12.524;2023-05-20T07:42:26;100822.81;;;14.38;84.39
21863;BME280;11096;51.338;12.524;2023-05-20T07:44:51;100804.63;;;14.61;81.91
21863;BME280;11096;51.338;12.524;2023-05-20T07:47:17;100815.91;;;14.62;80.85
21863;BME280;11096;51.338;12.524;2023-05-20T07:49:42;100816.91;;;14.72;80.26
21863;BME280;11096;51.338;12.524;2023-05-20T07:52:08;100810.50;;;14.98;78.99
21863;BME280;11096;51.338;12.524;2023-05-20T07:54:34;100807.06;;;15.20;77.82
21863;BME280;11096;51.338;12.524;2023-05-20T07:56:59;100808.13;;;14.95;77.51
21863;BME280;11096;51.338;12.524;2023-05-20T07:59:25;100802.31;;;14.92;76.88
21863;BME280;11096;51.338;12.524;2023-05-20T08:01:50;100793.94;;;15.43;76.97
21863;BME280;11096;51.338;12.524;2023-05-20T08:04:16;100799.75;;;15.58;75.89
21863;BME280;11096;51.338;12.524;2023-05-20T08:06:41;100802.06;;;15.29;75.49
21863;BME280;11096;51.338;12.524;2023-05-20T08:09:08;100805.50;;;15.18;75.65
21863;BME280;11096;51.338;12.524;2023-05-20T08:11:34;100804.22;;;15.23;75.84
21863;BME280;11096;51.338;12.524;2023-05-20T08:13:59;100806.56;;;15.38;75.42
21863;BME280;11096;51.338;12.524;2023-05-20T08:16:26;100812.75;;;15.37;75.03
21863;BME280;11096;51.338;12.524;2023-05-20T08:18:51;100802.47;;;15.90;73.64
21863;BME280;11096;51.338;12.524;2023-05-20T08:21:17;100803.84;;;16.05;72.50
21863;BME280;11096;51.338;12.524;2023-05-20T08:23:42;100794.75;;;16.09;71.75
21863;BME280;11096;51.338;12.524;2023-05-20T08:26:08;100806.03;;;15.89;72.52
21863;BME280;11096;51.338;12.524;2023-05-20T08:28:34;100795.38;;;16.02;71.70
21863;BME280;11096;51.338;12.524;2023-05-20T08:31:01;100796.69;;;16.28;71.13
21863;BME280;11096;51.338;12.524;2023-05-20T08:33:26;100790.69;;;16.38;70.53
21863;BME280;11096;51.338;12.524;2023-05-20T08:35:52;100791.00;;;16.02;70.88
21863;BME280;11096;51.338;12.524;2023-05-20T08:38:17;100789.19;;;16.24;71.17
21863;BME280;11096;51.338;12.524;2023-05-20T08:40:43;100794.31;;;16.46;70.60
21863;BME280;11096;51.338;12.524;2023-05-20T08:43:08;100791.53;;;16.38;69.66
21863;BME280;11096;51.338;12.524;2023-05-20T08:45:36;100796.63;;;16.19;69.93
21863;BME280;11096;51.338;12.524;2023-05-20T08:48:03;100791.78;;;16.35;69.93
21863;BME280;11096;51.338;12.524;2023-05-20T08:50:32;100796.97;;;17.19;68.38
21863;BME280;11096;51.338;12.524;2023-05-20T08:52:58;100789.84;;;17.00;67.58
21863;BME280;11096;51.338;12.524;2023-05-20T08:57:49;100779.13;;;17.73;63.46
21863;BME280;11096;51.338;12.524;2023-05-20T09:00:16;100785.06;;;17.55;63.64
21863;BME280;11096;51.338;12.524;2023-05-20T09:02:44;100781.94;;;18.20;63.30
21863;BME280;11096;51.338;12.524;2023-05-20T09:05:10;100778.91;;;19.19;62.21
21863;BME280;11096;51.338;12.524;2023-05-20T09:07:36;100773.34;;;18.08;62.41
21863;BME280;11096;51.338;12.524;2023-05-20T09:10:02;100764.97;;;18.61;61.34
21863;BME280;11096;51.338;12.524;2023-05-20T09:12:28;100765.56;;;17.77;62.13
21863;BME280;11096;51.338;12.524;2023-05-20T09:14:53;100768.50;;;18.13;62.73
21863;BME280;11096;51.338;12.524;2023-05-20T09:17:20;100768.22;;;17.77;63.39
21863;BME280;11096;51.338;12.524;2023-05-20T09:19:49;100763.09;;;18.34;62.98
21863;BME280;11096;51.338;12.524;2023-05-20T09:22:24;100753.00;;;18.86;61.90
21863;BME280;11096;51.338;12.524;2023-05-20T09:24:50;100760.09;;;19.14;60.79
21863;BME280;11096;51.338;12.524;2023-05-20T09:27:17;100755.13;;;18.63;61.31
21863;BME280;11096;51.338;12.524;2023-05-20T09:29:42;100753.91;;;18.48;60.61
21863;BME280;11096;51.338;12.524;2023-05-20T09:32:09;100754.38;;;18.91;60.37
21863;BME280;11096;51.338;12.524;2023-05-20T09:34:36;100755.56;;;18.59;61.31
21863;BME280;11096;51.338;12.524;2023-05-20T09:37:01;100760.47;;;17.86;63.04
21863;BME280;11096;51.338;12.524;2023-05-20T09:39:29;100753.69;;;19.71;59.93
21863;BME280;11096;51.338;12.524;2023-05-20T09:42:03;100750.09;;;18.13;60.72
21863;BME280;11096;51.338;12.524;2023-05-20T09:44:30;100748.72;;;18.29;61.21
21863;BME280;11096;51.338;12.524;2023-05-20T09:46:56;100746.88;;;19.23;60.39
21863;BME280;11096;51.338;12.524;2023-05-20T09:49:24;100748.41;;;19.71;59.20
21863;BME280;11096;51.338;12.524;2023-05-20T09:51:51;100727.03;;;22.05;53.19
21863;BME280;11096;51.338;12.524;2023-05-20T09:54:18;100726.09;;;20.54;54.50
21863;BME280;11096;51.338;12.524;2023-05-20T09:56:45;100733.63;;;20.23;55.95
21863;BME280;11096;51.338;12.524;2023-05-20T09:59:14;100730.91;;;20.85;55.14
21863;BME280;11096;51.338;12.524;2023-05-20T10:01:40;100726.22;;;19.19;56.42
21863;BME280;11096;51.338;12.524;2023-05-20T10:04:07;100711.34;;;20.43;56.14
21863;BME280;11096;51.338;12.524;2023-05-20T10:07:09;100715.34;;;20.21;55.68
21863;BME280;11096;51.338;12.524;2023-05-20T10:09:49;100705.06;;;23.70;51.43
21863;BME280;11096;51.338;12.524;2023-05-20T10:12:33;100702.50;;;25.34;45.24
21863;BME280;11096;51.338;12.524;2023-05-20T10:15:09;100684.56;;;29.85;39.40
21863;BME280;11096;51.338;12.524;2023-05-20T10:20:21;100692.72;;;22.61;46.02
21863;BME280;11096;51.338;12.524;2023-05-20T10:22:57;100698.25;;;23.76;46.36
21863;BME280;11096;51.338;12.524;2023-05-20T10:25:24;100683.97;;;26.18;42.84
21863;BME280;11096;51.338;12.524;2023-05-20T10:28:07;100688.69;;;28.85;37.87
21863;BME280;11096;51.338;12.524;2023-05-20T10:30:33;100683.81;;;29.78;36.64
21863;BME280;11096;51.338;12.524;2023-05-20T10:33:03;100667.47;;;30.04;36.14
21863;BME280;11096;51.338;12.524;2023-05-20T10:35:29;100668.19;;;30.92;33.92
21863;BME280;11096;51.338;12.524;2023-05-20T10:38:07;100659.72;;;29.14;36.73
21863;BME280;11096;51.338;12.524;2023-05-20T10:40:33;100650.72;;;32.49;32.65
21863;BME280;11096;51.338;12.524;2023-05-20T10:43:10;100655.28;;;30.82;33.69
21863;BME280;11096;51.338;12.524;2023-05-20T10:45:47;100651.88;;;31.82;33.02
21863;BME280;11096;51.338;12.524;2023-05-20T10:48:28;100657.06;;;31.96;32.00
21863;BME280;11096;51.338;12.524;2023-05-20T10:50:59;100662.66;;;29.06;36.12
21863;BME280;11096;51.338;12.524;2023-05-20T10:53:28;100651.94;;;28.67;36.02
21863;BME280;11096;51.338;12.524;2023-05-20T10:55:55;100649.34;;;26.53;38.70
21863;BME280;11096;51.338;12.524;2023-05-20T10:58:22;100644.97;;;26.87;39.73
21863;BME280;11096;51.338;12.524;2023-05-20T11:00:49;100639.16;;;26.63;40.08
21863;BME280;11096;51.338;12.524;2023-05-20T11:03:15;100643.59;;;26.15;40.35
21863;BME280;11096;51.338;12.524;2023-05-20T11:05:44;100635.56;;;26.91;38.95
21863;BME280;11096;51.338;12.524;2023-05-20T11:08:11;100637.31;;;25.23;41.47
21863;BME280;11096;51.338;12.524;2023-05-20T11:10:36;100630.41;;;26.00;40.41
21863;BME280;11096;51.338;12.524;2023-05-20T11:13:02;100629.47;;;25.36;41.97
21863;BME280;11096;51.338;12.524;2023-05-20T11:15:29;100626.66;;;27.85;39.90
21863;BME280;11096;51.338;12.524;2023-05-20T11:17:56;100614.81;;;29.48;37.21
21863;BME280;11096;51.338;12.524;2023-05-20T11:20:23;100622.94;;;27.99;37.15
21863;BME280;11096;51.338;12.524;2023-05-20T11:22:55;100630.13;;;27.66;37.64
21863;BME280;11096;51.338;12.524;2023-05-20T11:25:21;100615.41;;;29.25;36.81
21863;BME280;11096;51.338;12.524;2023-05-20T11:27:50;100620.72;;;31.16;34.24
21863;BME280;11096;51.338;12.524;2023-05-20T11:30:16;100613.78;;;31.38;32.96
21863;BME280;11096;51.338;12.524;2023-05-20T11:33:03;100614.72;;;27.88;37.24
21863;BME280;11096;51.338;12.524;2023-05-20T11:35:30;100609.25;;;29.24;36.02
21863;BME280;11096;51.338;12.524;2023-05-20T11:38:00;100595.94;;;30.90;33.73
21863;BME280;11096;51.338;12.524;2023-05-20T11:40:26;100595.81;;;31.74;31.95
21863;BME280;11096;51.338;12.524;2023-05-20T11:42:53;100594.94;;;29.05;34.72
21863;BME280;11096;51.338;12.524;2023-05-20T11:45:19;100602.63;;;30.69;34.24
21863;BME280;11096;51.338;12.524;2023-05-20T11:47:45;100602.13;;;28.15;37.38
21863;BME280;11096;51.338;12.524;2023-05-20T11:50:15;100598.22;;;28.11;38.40
21863;BME280;11096;51.338;12.524;2023-05-20T11:52:42;100586.38;;;27.53;37.58
21863;BME280;11096;51.338;12.524;2023-05-20T11:55:10;100567.00;;;30.92;35.16
21863;BME280;11096;51.338;12.524;2023-05-20T11:57:37;100569.31;;;31.42;33.87
21863;BME280;11096;51.338;12.524;2023-05-20T12:00:02;100566.56;;;29.98;35.57
21863;BME280;11096;51.338;12.524;2023-05-20T12:02:31;100568.31;;;27.55;37.99
21863;BME280;11096;51.338;12.524;2023-05-20T12:04:56;100565.53;;;28.22;38.29
21863;BME280;11096;51.338;12.524;2023-05-20T12:07:22;100559.03;;;28.50;37.66
21863;BME280;11096;51.338;12.524;2023-05-20T12:09:47;100561.81;;;30.79;34.48
21863;BME280;11096;51.338;12.524;2023-05-20T12:12:13;100564.47;;;28.23;38.09
21863;BME280;11096;51.338;12.524;2023-05-20T12:14:38;100558.84;;;28.38;37.58
21863;BME280;11096;51.338;12.524;2023-05-20T12:17:04;100552.25;;;29.42;36.60
21863;BME280;11096;51.338;12.524;2023-05-20T12:19:29;100554.63;;;29.50;36.78
21863;BME280;11096;51.338;12.524;2023-05-20T12:21:55;100551.59;;;29.65;36.13
21863;BME280;11096;51.338;12.524;2023-05-20T12:24:20;100562.13;;;27.75;38.65
21863;BME280;11096;51.338;12.524;2023-05-20T12:26:45;100550.06;;;29.07;37.44
21863;BME280;11096;51.338;12.524;2023-05-20T12:29:11;100544.81;;;29.69;36.11
21863;BME280;11096;51.338;12.524;2023-05-20T12:31:36;100546.47;;;30.26;36.04
21863;BME280;11096;51.338;12.524;2023-05-20T12:34:02;100535.41;;;31.77;32.63
21863;BME280;11096;51.338;12.524;2023-05-20T12:36:27;100535.06;;;29.31;35.54
21863;BME280;11096;51.338;12.524;2023-05-20T12:38:53;100532.38;;;27.65;38.18